createdAt,value
2023-04-22T00:01:30.302Z,9.77
2023-04-22T00:04:32.035Z,9.74
2023-04-22T00:07:33.781Z,9.70
2023-04-22T00:10:35.313Z,9.67
2023-04-22T00:13:37.289Z,9.62
2023-04-22T00:16:39.317Z,9.59
2023-04-22T00:19:41.906Z,9.55
2023-04-22T00:22:43.476Z,9.50
2023-04-22T00:25:45.302Z,9.45
2023-04-22T00:28:46.888Z,9.43
2023-04-22T00:31:48.686Z,9.39
2023-04-22T00:34:50.495Z,9.37
2023-04-22T00:37:52.035Z,9.34
2023-04-22T00:40:53.599Z,9.32
2023-04-22T00:43:55.417Z,9.30
2023-04-22T00:46:57.216Z,9.29
2023-04-22T00:49:59.274Z,9.27
2023-04-22T00:53:00.924Z,9.26
2023-04-22T00:56:02.584Z,9.23
2023-04-22T00:59:04.705Z,9.19
2023-04-22T01:02:07.268Z,9.17
2023-04-22T01:05:09.660Z,9.14
2023-04-22T01:08:12.296Z,9.13
2023-04-22T01:11:14.139Z,9.11
2023-04-22T01:14:16.101Z,9.07
2023-04-22T01:17:19.444Z,9.04
2023-04-22T01:20:22.842Z,9.00
2023-04-22T01:23:24.401Z,8.98
2023-04-22T01:26:26.083Z,8.94
2023-04-22T01:29:27.775Z,8.90
2023-04-22T01:32:30.833Z,8.86
2023-04-22T01:35:37.106Z,8.83
2023-04-22T01:41:41.580Z,8.79
2023-04-22T01:44:43.210Z,8.75
2023-04-22T01:47:44.867Z,8.74
2023-04-22T01:50:46.446Z,8.72
2023-04-22T01:53:51.479Z,8.70
2023-04-22T01:56:54.681Z,8.68
2023-04-22T01:59:56.346Z,8.65
2023-04-22T02:02:57.979Z,8.65
2023-04-22T02:05:59.580Z,8.65
2023-04-22T02:09:01.130Z,8.66
2023-04-22T02:12:02.837Z,8.62
2023-04-22T02:15:05.100Z,8.59
2023-04-22T02:18:08.182Z,8.56
2023-04-22T02:21:09.902Z,8.55
2023-04-22T02:24:11.511Z,8.55
2023-04-22T02:27:13.026Z,8.57
2023-04-22T02:30:14.775Z,8.54
2023-04-22T02:33:16.308Z,8.54
2023-04-22T02:36:17.876Z,8.54
2023-04-22T02:39:19.422Z,8.52
2023-04-22T02:42:21.008Z,8.52
2023-04-22T02:45:22.963Z,8.51
2023-04-22T02:48:24.460Z,8.53
2023-04-22T02:51:26.782Z,8.52
2023-04-22T02:54:28.350Z,8.51
2023-04-22T02:57:30.093Z,8.50
2023-04-22T03:00:31.764Z,8.47
2023-04-22T03:03:33.709Z,8.45
2023-04-22T03:06:35.365Z,8.43
2023-04-22T03:09:37.170Z,8.42
2023-04-22T03:12:39.028Z,8.41
2023-04-22T03:15:41.554Z,8.38
2023-04-22T03:18:43.105Z,8.32
2023-04-22T03:21:44.646Z,8.26
2023-04-22T03:24:46.388Z,8.18
2023-04-22T03:27:48.027Z,8.12
2023-04-22T03:30:49.557Z,8.04
2023-04-22T03:33:51.148Z,8.00
2023-04-22T03:36:52.791Z,7.98
2023-04-22T03:39:54.391Z,7.97
2023-04-22T03:42:56.187Z,7.95
2023-04-22T03:45:57.807Z,7.95
2023-04-22T03:48:59.400Z,7.96
2023-04-22T03:52:01.462Z,7.97
2023-04-22T03:55:03.111Z,7.98
2023-04-22T03:58:04.696Z,7.99
2023-04-22T04:01:06.626Z,8.01
2023-04-22T04:04:08.394Z,8.02
2023-04-22T04:07:10.236Z,8.01
2023-04-22T04:10:12.115Z,8.02
2023-04-22T04:13:13.657Z,8.04
2023-04-22T04:16:15.332Z,8.07
2023-04-22T04:19:16.960Z,8.10
2023-04-22T04:22:18.566Z,8.12
2023-04-22T04:25:21.284Z,8.13
2023-04-22T04:28:22.835Z,8.15
2023-04-22T04:31:27.820Z,8.18
2023-04-22T04:34:29.427Z,8.19
2023-04-22T04:37:31.093Z,8.22
2023-04-22T04:40:33.932Z,8.25
2023-04-22T04:43:35.825Z,8.29
2023-04-22T04:46:37.885Z,8.31
2023-04-22T04:49:40.267Z,8.33
2023-04-22T04:52:42.495Z,8.34
2023-04-22T04:55:44.087Z,8.35
2023-04-22T04:58:45.643Z,8.33
2023-04-22T05:01:47.233Z,8.31
2023-04-22T05:04:48.899Z,8.30
2023-04-22T05:07:51.902Z,8.28
2023-04-22T05:10:53.460Z,8.27
2023-04-22T05:13:56.428Z,8.30
2023-04-22T05:16:58.536Z,8.34
2023-04-22T05:20:00.413Z,8.43
2023-04-22T05:23:01.984Z,8.49
2023-04-22T05:26:03.654Z,8.56
2023-04-22T05:29:05.391Z,8.66
2023-04-22T05:32:08.558Z,8.75
2023-04-22T05:35:11.112Z,8.86
2023-04-22T05:38:12.919Z,8.95
2023-04-22T05:41:14.489Z,9.06
2023-04-22T05:44:17.639Z,9.16
2023-04-22T05:47:19.487Z,9.28
2023-04-22T05:50:22.738Z,9.39
2023-04-22T05:53:24.910Z,9.49
2023-04-22T05:56:26.652Z,9.59
2023-04-22T05:59:28.301Z,9.68
2023-04-22T06:02:29.999Z,9.75
2023-04-22T06:05:31.943Z,9.81
2023-04-22T06:08:33.551Z,9.90
2023-04-22T06:11:35.159Z,9.96
2023-04-22T06:14:36.739Z,10.02
2023-04-22T06:17:39.383Z,10.12
2023-04-22T06:20:41.053Z,10.24
2023-04-22T06:23:42.568Z,10.37
2023-04-22T06:26:44.213Z,10.45
2023-04-22T06:29:45.830Z,10.51
2023-04-22T06:32:47.423Z,10.57
2023-04-22T06:35:48.989Z,10.61
2023-04-22T06:38:50.592Z,10.64
2023-04-22T06:41:52.155Z,10.69
2023-04-22T06:44:53.687Z,10.72
2023-04-22T06:47:55.429Z,10.74
2023-04-22T06:50:57.488Z,10.75
2023-04-22T06:53:59.161Z,10.80
2023-04-22T06:57:01.600Z,10.86
2023-04-22T07:00:04.830Z,10.92
2023-04-22T07:03:06.471Z,10.98
2023-04-22T07:06:08.665Z,11.03
2023-04-22T07:09:10.316Z,11.07
2023-04-22T07:12:11.897Z,11.14
2023-04-22T07:15:13.600Z,11.20
2023-04-22T07:18:15.135Z,11.28
2023-04-22T07:21:16.728Z,11.32
2023-04-22T07:24:18.318Z,11.37
2023-04-22T07:27:19.862Z,11.41
2023-04-22T07:30:21.546Z,11.47
2023-04-22T07:33:23.537Z,11.53
2023-04-22T07:36:25.251Z,11.68
2023-04-22T07:39:26.984Z,11.89
2023-04-22T07:42:28.766Z,12.16
2023-04-22T07:45:30.387Z,12.42
2023-04-22T07:48:31.987Z,12.66
2023-04-22T07:51:33.574Z,12.83
2023-04-22T07:54:35.204Z,12.99
2023-04-22T07:57:38.865Z,13.13
2023-04-22T08:00:40.509Z,13.26
2023-04-22T08:03:42.579Z,13.37
2023-04-22T08:06:44.218Z,13.46
2023-04-22T08:09:45.806Z,13.53
2023-04-22T08:12:47.661Z,13.59
2023-04-22T08:15:49.260Z,13.67
2023-04-22T08:18:52.285Z,13.76
2023-04-22T08:21:53.858Z,13.77
2023-04-22T08:24:55.419Z,13.84
2023-04-22T08:27:57.289Z,13.95
2023-04-22T08:30:58.944Z,14.09
2023-04-22T08:34:00.678Z,14.25
2023-04-22T08:37:02.618Z,14.42
2023-04-22T08:40:04.900Z,14.57
2023-04-22T08:43:07.134Z,14.67
2023-04-22T08:46:08.840Z,14.74
2023-04-22T08:49:10.742Z,14.77
2023-04-22T08:52:15.201Z,14.80
2023-04-22T08:55:16.850Z,14.86
2023-04-22T08:58:18.521Z,14.93
2023-04-22T09:01:21.531Z,14.99
2023-04-22T09:04:23.393Z,15.08
2023-04-22T09:07:28.097Z,15.19
2023-04-22T09:10:34.236Z,15.34
2023-04-22T09:13:36.106Z,15.47
2023-04-22T09:16:44.569Z,15.62
2023-04-22T09:19:46.318Z,15.67
2023-04-22T09:22:49.920Z,15.68
2023-04-22T09:25:51.768Z,15.72
2023-04-22T09:28:56.127Z,15.77
2023-04-22T09:31:57.785Z,15.87
2023-04-22T09:34:59.415Z,15.98
2023-04-22T09:38:02.997Z,16.11
2023-04-22T09:41:10.309Z,16.32
2023-04-22T09:44:16.025Z,16.54
2023-04-22T09:47:17.643Z,16.73
2023-04-22T09:50:25.631Z,16.83
2023-04-22T09:53:27.312Z,16.84
2023-04-22T09:56:48.237Z,16.85
2023-04-22T09:59:53.172Z,16.93
2023-04-22T10:02:54.838Z,17.10
2023-04-22T10:05:56.910Z,17.31
2023-04-22T10:08:59.839Z,17.48
2023-04-22T10:12:02.020Z,17.67
2023-04-22T10:15:07.984Z,17.95
2023-04-22T10:18:13.700Z,18.19
2023-04-22T10:21:17.200Z,18.31
2023-04-22T10:24:19.625Z,18.40
2023-04-22T10:27:22.452Z,18.53
2023-04-22T10:30:29.176Z,18.62
2023-04-22T10:33:35.225Z,18.76
2023-04-22T10:37:05.320Z,18.98
2023-04-22T10:40:16.007Z,19.12
2023-04-22T10:43:19.647Z,19.27
2023-04-22T10:46:34.552Z,19.43
2023-04-22T10:49:36.628Z,19.52
2023-04-22T10:52:38.468Z,19.61
2023-04-22T10:55:53.316Z,19.71
2023-04-22T10:58:56.530Z,19.82
2023-04-22T11:02:16.902Z,19.92
2023-04-22T11:05:27.495Z,19.95
2023-04-22T11:08:29.300Z,19.92
2023-04-22T11:11:30.897Z,19.99
2023-04-22T11:14:32.918Z,20.04
2023-04-22T11:17:35.458Z,20.05
2023-04-22T11:20:37.467Z,20.05
2023-04-22T11:23:38.985Z,19.97
2023-04-22T11:26:41.407Z,19.97
2023-04-22T11:29:42.944Z,20.07
2023-04-22T11:32:47.625Z,20.16
2023-04-22T11:35:50.634Z,20.24
2023-04-22T11:38:56.322Z,20.32
2023-04-22T11:41:58.290Z,20.29
2023-04-22T11:44:59.794Z,20.30
2023-04-22T11:48:02.884Z,20.26
2023-04-22T11:51:12.214Z,20.29
2023-04-22T11:54:13.767Z,20.35
2023-04-22T11:57:17.747Z,20.41
2023-04-22T12:00:19.532Z,20.34
2023-04-22T12:03:24.703Z,20.24
2023-04-22T12:06:32.326Z,20.26
2023-04-22T12:09:34.492Z,20.35
2023-04-22T12:12:39.579Z,20.43
2023-04-22T12:15:45.397Z,20.44
2023-04-22T12:18:55.948Z,20.49
2023-04-22T12:21:57.995Z,20.44
2023-04-22T12:25:00.717Z,20.41
2023-04-22T12:28:02.372Z,20.37
2023-04-22T12:31:04.212Z,20.40
2023-04-22T12:34:06.228Z,20.52
2023-04-22T12:37:07.947Z,20.69
2023-04-22T12:40:10.366Z,20.77
2023-04-22T12:43:12.332Z,20.80
2023-04-22T12:46:13.928Z,20.83
2023-04-22T12:49:15.940Z,20.84
2023-04-22T12:52:17.587Z,20.80
2023-04-22T12:55:20.953Z,20.71
2023-04-22T12:58:22.720Z,20.62
2023-04-22T13:01:24.378Z,20.59
2023-04-22T13:04:26.109Z,20.56
2023-04-22T13:07:27.773Z,20.51
2023-04-22T13:10:30.126Z,20.52
2023-04-22T13:13:31.684Z,20.57
2023-04-22T13:16:33.296Z,20.64
2023-04-22T13:19:35.477Z,20.66
2023-04-22T13:22:37.102Z,20.58
2023-04-22T13:25:38.918Z,20.47
2023-04-22T13:28:40.488Z,20.28
2023-04-22T13:31:43.718Z,20.15
2023-04-22T13:34:45.929Z,20.09
2023-04-22T13:37:47.591Z,20.05
2023-04-22T13:40:49.174Z,20.05
2023-04-22T13:43:54.308Z,20.05
2023-04-22T13:46:55.882Z,20.13
2023-04-22T13:49:58.054Z,20.26
2023-04-22T13:52:59.637Z,20.42
2023-04-22T13:56:01.217Z,20.57
2023-04-22T13:59:02.845Z,20.75
2023-04-22T14:02:04.490Z,20.86
2023-04-22T14:05:07.530Z,20.95
2023-04-22T14:08:09.136Z,21.04
2023-04-22T14:11:11.185Z,21.13
2023-04-22T14:14:12.706Z,21.23
2023-04-22T14:17:14.381Z,21.31
2023-04-22T14:20:15.996Z,21.34
2023-04-22T14:23:18.381Z,21.26
2023-04-22T14:26:20.175Z,21.17
2023-04-22T14:29:21.784Z,21.09
2023-04-22T14:32:25.179Z,21.03
2023-04-22T14:35:27.015Z,21.07
2023-04-22T14:38:29.693Z,21.08
2023-04-22T14:41:31.368Z,21.01
2023-04-22T14:44:32.994Z,20.98
2023-04-22T14:47:34.539Z,20.86
2023-04-22T14:50:36.188Z,20.78
2023-04-22T14:53:37.822Z,20.79
2023-04-22T14:56:39.589Z,20.76
2023-04-22T14:59:41.794Z,20.73
2023-04-22T15:02:44.556Z,20.70
2023-04-22T15:05:49.351Z,20.67
2023-04-22T15:08:54.028Z,20.60
2023-04-22T15:11:56.534Z,20.51
2023-04-22T15:14:58.195Z,20.45
2023-04-22T15:17:59.934Z,20.41
2023-04-22T15:21:03.383Z,20.37
2023-04-22T15:24:05.002Z,20.34
2023-04-22T15:27:07.476Z,20.35
2023-04-22T15:30:11.259Z,20.40
2023-04-22T15:33:12.833Z,20.45
2023-04-22T15:36:18.268Z,20.47
2023-04-22T15:39:20.362Z,20.48
2023-04-22T15:42:21.948Z,20.50
2023-04-22T15:45:23.483Z,20.54
2023-04-22T15:48:25.297Z,20.56
2023-04-22T15:51:28.104Z,20.53
2023-04-22T15:54:29.830Z,20.45
2023-04-22T15:57:34.482Z,20.40
2023-04-22T16:00:37.251Z,20.36
2023-04-22T16:03:39.014Z,20.33
2023-04-22T16:06:40.674Z,20.31
2023-04-22T16:09:42.345Z,20.29
2023-04-22T16:12:44.170Z,20.31
2023-04-22T16:15:46.548Z,20.33
2023-04-22T16:18:48.141Z,20.32
2023-04-22T16:21:50.516Z,20.30
2023-04-22T16:24:52.122Z,20.31
2023-04-22T16:27:53.711Z,20.30
2023-04-22T16:30:55.311Z,20.26
2023-04-22T16:33:56.966Z,20.22
2023-04-22T16:36:58.548Z,20.19
2023-04-22T16:40:01.261Z,20.15
2023-04-22T16:43:05.224Z,20.13
2023-04-22T16:46:06.848Z,20.11
2023-04-22T16:49:10.369Z,20.11
2023-04-22T16:52:12.344Z,20.08
2023-04-22T16:55:14.492Z,20.07
2023-04-22T16:58:16.192Z,20.05
2023-04-22T17:01:17.818Z,20.05
2023-04-22T17:04:19.737Z,20.04
2023-04-22T17:07:21.458Z,19.99
2023-04-22T17:10:23.189Z,19.96
2023-04-22T17:13:24.715Z,19.91
2023-04-22T17:16:26.626Z,19.88
2023-04-22T17:19:28.363Z,19.85
2023-04-22T17:22:30.076Z,19.84
2023-04-22T17:25:31.776Z,19.80
2023-04-22T17:28:33.351Z,19.79
2023-04-22T17:31:35.058Z,19.78
2023-04-22T17:34:36.698Z,19.76
2023-04-22T17:37:38.277Z,19.75
2023-04-22T17:40:40.009Z,19.73
2023-04-22T17:43:41.575Z,19.69
2023-04-22T17:46:43.384Z,19.66
2023-04-22T17:49:45.010Z,19.58
2023-04-22T17:52:46.707Z,19.48
2023-04-22T17:55:48.264Z,19.29
2023-04-22T17:58:49.809Z,19.07
2023-04-22T18:01:51.503Z,18.79
2023-04-22T18:04:53.166Z,18.47
2023-04-22T18:08:01.703Z,18.12
2023-04-22T18:11:05.032Z,17.87
2023-04-22T18:14:07.930Z,18.07
2023-04-22T18:17:09.519Z,17.76
2023-04-22T18:20:18.276Z,17.47
2023-04-22T18:23:20.555Z,17.23
2023-04-22T18:26:23.050Z,17.02
2023-04-22T18:29:24.590Z,16.83
2023-04-22T18:32:26.226Z,16.69
2023-04-22T18:35:27.814Z,16.57
2023-04-22T18:38:29.402Z,16.50
2023-04-22T18:41:31.351Z,16.41
2023-04-22T18:44:32.937Z,16.27
2023-04-22T18:47:34.629Z,16.15
2023-04-22T18:50:36.481Z,16.04
2023-04-22T18:53:38.188Z,15.94
2023-04-22T18:56:39.838Z,15.85
2023-04-22T18:59:42.279Z,15.75
2023-04-22T19:02:46.021Z,15.68
2023-04-22T19:05:48.173Z,15.63
2023-04-22T19:08:51.819Z,15.60
2023-04-22T19:11:53.603Z,15.57
2023-04-22T19:14:55.315Z,15.54
2023-04-22T19:17:56.898Z,15.45
2023-04-22T19:20:58.527Z,15.39
2023-04-22T19:24:00.415Z,15.32
2023-04-22T19:27:02.849Z,15.28
2023-04-22T19:30:06.567Z,15.23
2023-04-22T19:33:08.176Z,15.16
2023-04-22T19:36:10.122Z,15.12
2023-04-22T19:39:11.836Z,15.07
2023-04-22T19:42:13.518Z,15.02
2023-04-22T19:45:15.270Z,14.97
2023-04-22T19:48:17.303Z,14.94
2023-04-22T19:51:19.319Z,15.17
2023-04-22T19:54:22.121Z,15.08
2023-04-22T19:57:24.835Z,15.02
2023-04-22T20:00:26.580Z,15.02
2023-04-22T20:03:28.683Z,14.96
2023-04-22T20:06:31.644Z,15.23
2023-04-22T20:09:33.344Z,15.06
2023-04-22T20:12:37.060Z,14.95
2023-04-22T20:15:38.997Z,14.86
2023-04-22T20:18:40.831Z,14.77
2023-04-22T20:21:43.464Z,14.70
2023-04-22T20:24:45.757Z,14.64
2023-04-22T20:27:48.412Z,14.56
2023-04-22T20:30:50.294Z,14.47
2023-04-22T20:33:52.863Z,14.36
2023-04-22T20:36:55.025Z,14.28
2023-04-22T20:39:58.765Z,14.23
2023-04-22T20:43:00.436Z,14.17
2023-04-22T20:46:02.232Z,14.14
2023-04-22T20:49:03.850Z,14.13
2023-04-22T20:52:05.573Z,14.10
2023-04-22T20:55:07.435Z,14.13
2023-04-22T20:58:09.295Z,14.13
2023-04-22T21:01:11.098Z,14.11
2023-04-22T21:04:13.126Z,14.08
2023-04-22T21:07:16.227Z,14.08
2023-04-22T21:10:19.502Z,14.10
2023-04-22T21:13:22.254Z,14.11
2023-04-22T21:16:29.831Z,14.08
2023-04-22T21:19:34.140Z,14.09
2023-04-22T21:22:37.606Z,14.06
2023-04-22T21:25:39.259Z,14.05
2023-04-22T21:28:41.060Z,14.04
2023-04-22T21:31:42.629Z,14.01
2023-04-22T21:34:44.795Z,14.03
2023-04-22T21:37:46.630Z,14.29
2023-04-22T21:40:48.908Z,14.42
2023-04-22T21:43:50.484Z,14.48
2023-04-22T21:46:52.025Z,14.50
2023-04-22T21:49:53.552Z,14.48
2023-04-22T21:52:55.275Z,14.44
2023-04-22T21:55:56.818Z,14.35
2023-04-22T21:58:58.453Z,14.29
2023-04-22T22:02:00.213Z,14.27
2023-04-22T22:05:02.049Z,14.26
2023-04-22T22:08:04.056Z,14.22
2023-04-22T22:11:05.980Z,14.19
2023-04-22T22:14:07.569Z,14.13
2023-04-22T22:17:10.191Z,14.33
2023-04-22T22:20:14.322Z,14.26
2023-04-22T22:23:16.059Z,14.22
2023-04-22T22:26:17.629Z,14.13
2023-04-22T22:29:19.138Z,14.08
2023-04-22T22:32:21.216Z,14.01
2023-04-22T22:35:22.738Z,13.94
2023-04-22T22:38:24.310Z,13.90
2023-04-22T22:41:25.850Z,13.85
2023-04-22T22:44:27.440Z,13.81
2023-04-22T22:47:29.021Z,13.74
2023-04-22T22:50:30.599Z,13.71
2023-04-22T22:53:34.277Z,13.68
2023-04-22T22:56:35.893Z,13.64
2023-04-22T22:59:39.147Z,13.61
2023-04-22T23:02:41.041Z,13.56
2023-04-22T23:05:42.712Z,13.50
2023-04-22T23:08:44.275Z,13.43
2023-04-22T23:11:48.317Z,13.38
2023-04-22T23:14:49.933Z,13.29
2023-04-22T23:17:51.775Z,13.21
2023-04-22T23:20:53.839Z,13.11
2023-04-22T23:23:56.812Z,13.03
2023-04-22T23:26:58.612Z,12.96
2023-04-22T23:30:00.681Z,12.90
2023-04-22T23:33:03.681Z,12.83
2023-04-22T23:36:06.375Z,12.77
2023-04-22T23:39:09.822Z,12.69
2023-04-22T23:42:11.432Z,12.58
2023-04-22T23:45:13.372Z,12.47
2023-04-22T23:48:15.085Z,12.39
2023-04-22T23:51:16.862Z,12.30
2023-04-22T23:54:18.725Z,12.24
2023-04-22T23:57:20.626Z,12.20
